sensor_id;sensor_type;location;lat;lon;timestamp;temperature;humidity
1888;DHT22;944;51.574;6.980;2023-07-30T00:01:01;15.80;99.90
1888;DHT22;944;51.574;6.980;2023-07-30T00:03:28;15.80;99.90
1888;DHT22;944;51.574;6.980;2023-07-30T00:05:57;15.80;99.90
1888;DHT22;944;51.574;6.980;2023-07-30T00:08:24;15.70;99.90
1888;DHT22;944;51.574;6.980;2023-07-30T00:10:51;15.80;99.90
1888;DHT22;944;51.574;6.980;2023-07-30T00:13:18;15.80;99.90
1888;DHT22;944;51.574;6.980;2023-07-30T00:15:47;15.80;99.90
1888;DHT22;944;51.574;6.980;2023-07-30T00:18:16;15.80;99.90
1888;DHT22;944;51.574;6.980;2023-07-30T00:20:46;15.80;99.90
1888;DHT22;944;51.574;6.980;2023-07-30T00:23:13;15.90;99.90
1888;DHT22;944;51.574;6.980;2023-07-30T00:25:43;15.70;99.90
1888;DHT22;944;51.574;6.980;2023-07-30T00:28:10;15.60;99.90
1888;DHT22;944;51.574;6.980;2023-07-30T00:30:37;15.60;99.90
1888;DHT22;944;51.574;6.980;2023-07-30T00:33:04;15.50;99.90
1888;DHT22;944;51.574;6.980;2023-07-30T00:35:32;15.50;99.90
1888;DHT22;944;51.574;6.980;2023-07-30T00:38:00;15.50;99.90
1888;DHT22;944;51.574;6.980;2023-07-30T00:40:27;15.50;99.90
1888;DHT22;944;51.574;6.980;2023-07-30T00:42:54;15.40;99.90
1888;DHT22;944;51.574;6.980;2023-07-30T00:45:23;15.40;99.90
1888;DHT22;944;51.574;6.980;2023-07-30T00:47:50;15.40;99.90
1888;DHT22;944;51.574;6.980;2023-07-30T00:50:17;15.30;99.90
1888;DHT22;944;51.574;6.980;2023-07-30T00:52:48;15.30;99.90
1888;DHT22;944;51.574;6.980;2023-07-30T00:55:15;15.30;99.90
1888;DHT22;944;51.574;6.980;2023-07-30T00:57:43;15.30;99.90
1888;DHT22;944;51.574;6.980;2023-07-30T01:00:11;15.30;99.90
1888;DHT22;944;51.574;6.980;2023-07-30T01:02:40;15.20;99.90
1888;DHT22;944;51.574;6.980;2023-07-30T01:05:09;15.20;99.90
1888;DHT22;944;51.574;6.980;2023-07-30T01:07:36;15.20;99.90
1888;DHT22;944;51.574;6.980;2023-07-30T01:10:05;15.10;99.90
1888;DHT22;944;51.574;6.980;2023-07-30T01:12:34;15.10;99.90
1888;DHT22;944;51.574;6.980;2023-07-30T01:15:04;15.10;99.90
1888;DHT22;944;51.574;6.980;2023-07-30T01:17:32;15.00;99.90
1888;DHT22;944;51.574;6.980;2023-07-30T01:19:59;15.00;99.90
1888;DHT22;944;51.574;6.980;2023-07-30T01:22:27;14.90;99.90
1888;DHT22;944;51.574;6.980;2023-07-30T01:24:54;14.80;99.90
1888;DHT22;944;51.574;6.980;2023-07-30T01:27:24;14.90;99.90
1888;DHT22;944;51.574;6.980;2023-07-30T01:29:56;14.80;99.90
1888;DHT22;944;51.574;6.980;2023-07-30T01:32:28;14.70;99.90
1888;DHT22;944;51.574;6.980;2023-07-30T01:35:01;14.80;99.90
1888;DHT22;944;51.574;6.980;2023-07-30T01:37:30;14.80;99.90
1888;DHT22;944;51.574;6.980;2023-07-30T01:40:00;14.70;99.90
1888;DHT22;944;51.574;6.980;2023-07-30T01:42:28;14.70;99.90
1888;DHT22;944;51.574;6.980;2023-07-30T01:44:56;14.60;99.90
1888;DHT22;944;51.574;6.980;2023-07-30T01:47:23;14.60;99.90
1888;DHT22;944;51.574;6.980;2023-07-30T01:49:50;14.60;99.90
1888;DHT22;944;51.574;6.980;2023-07-30T01:52:17;14.60;99.90
1888;DHT22;944;51.574;6.980;2023-07-30T01:54:45;14.50;99.90
1888;DHT22;944;51.574;6.980;2023-07-30T01:57:13;14.50;99.90
1888;DHT22;944;51.574;6.980;2023-07-30T01:59:40;14.50;99.90
1888;DHT22;944;51.574;6.980;2023-07-30T02:02:07;14.50;99.90
1888;DHT22;944;51.574;6.980;2023-07-30T02:04:34;14.50;99.90
1888;DHT22;944;51.574;6.980;2023-07-30T02:07:01;14.40;99.90
1888;DHT22;944;51.574;6.980;2023-07-30T02:09:28;14.40;99.90
1888;DHT22;944;51.574;6.980;2023-07-30T02:11:56;14.40;99.90
1888;DHT22;944;51.574;6.980;2023-07-30T02:14:23;14.30;99.90
1888;DHT22;944;51.574;6.980;2023-07-30T02:16:50;14.30;99.90
1888;DHT22;944;51.574;6.980;2023-07-30T02:19:17;14.30;99.90
1888;DHT22;944;51.574;6.980;2023-07-30T02:21:44;14.30;99.90
1888;DHT22;944;51.574;6.980;2023-07-30T02:24:12;14.20;99.90
1888;DHT22;944;51.574;6.980;2023-07-30T02:26:39;14.20;99.90
1888;DHT22;944;51.574;6.980;2023-07-30T02:29:07;14.10;99.90
1888;DHT22;944;51.574;6.980;2023-07-30T02:31:34;14.20;99.90
1888;DHT22;944;51.574;6.980;2023-07-30T02:34:01;14.10;99.90
1888;DHT22;944;51.574;6.980;2023-07-30T02:36:28;14.10;99.90
1888;DHT22;944;51.574;6.980;2023-07-30T02:38:55;13.90;99.90
1888;DHT22;944;51.574;6.980;2023-07-30T02:41:22;14.10;99.90
1888;DHT22;944;51.574;6.980;2023-07-30T02:43:49;14.00;99.90
1888;DHT22;944;51.574;6.980;2023-07-30T02:46:18;14.00;99.90
1888;DHT22;944;51.574;6.980;2023-07-30T02:48:45;14.00;99.90
1888;DHT22;944;51.574;6.980;2023-07-30T02:51:12;14.10;99.90
1888;DHT22;944;51.574;6.980;2023-07-30T02:53:39;14.00;99.90
1888;DHT22;944;51.574;6.980;2023-07-30T02:56:06;14.10;99.90
1888;DHT22;944;51.574;6.980;2023-07-30T02:58:33;14.00;99.90
1888;DHT22;944;51.574;6.980;2023-07-30T03:01:06;14.00;99.90
1888;DHT22;944;51.574;6.980;2023-07-30T03:03:37;14.00;99.90
1888;DHT22;944;51.574;6.980;2023-07-30T03:06:04;13.90;99.90
1888;DHT22;944;51.574;6.980;2023-07-30T03:08:36;14.10;99.90
1888;DHT22;944;51.574;6.980;2023-07-30T03:11:04;14.00;99.90
1888;DHT22;944;51.574;6.980;2023-07-30T03:13:34;13.90;99.90
1888;DHT22;944;51.574;6.980;2023-07-30T03:16:01;13.80;99.90
1888;DHT22;944;51.574;6.980;2023-07-30T03:18:28;13.90;99.90
1888;DHT22;944;51.574;6.980;2023-07-30T03:21:03;13.90;99.90
1888;DHT22;944;51.574;6.980;2023-07-30T03:23:30;14.00;99.90
1888;DHT22;944;51.574;6.980;2023-07-30T03:25:58;13.80;99.90
1888;DHT22;944;51.574;6.980;2023-07-30T03:28:26;13.80;99.90
1888;DHT22;944;51.574;6.980;2023-07-30T03:30:53;13.70;99.90
1888;DHT22;944;51.574;6.980;2023-07-30T03:33:20;13.70;99.90
1888;DHT22;944;51.574;6.980;2023-07-30T03:35:48;13.80;99.90
1888;DHT22;944;51.574;6.980;2023-07-30T03:38:16;13.70;99.90
1888;DHT22;944;51.574;6.980;2023-07-30T03:40:43;13.80;99.90
1888;DHT22;944;51.574;6.980;2023-07-30T03:43:10;13.80;99.90
1888;DHT22;944;51.574;6.980;2023-07-30T03:45:37;13.80;99.90
1888;DHT22;944;51.574;6.980;2023-07-30T03:48:05;13.80;99.90
1888;DHT22;944;51.574;6.980;2023-07-30T03:50:32;13.80;99.90
1888;DHT22;944;51.574;6.980;2023-07-30T03:53:01;13.80;99.90
1888;DHT22;944;51.574;6.980;2023-07-30T03:55:29;13.70;99.90
1888;DHT22;944;51.574;6.980;2023-07-30T03:57:57;13.80;99.90
1888;DHT22;944;51.574;6.980;2023-07-30T04:00:24;13.80;99.90
1888;DHT22;944;51.574;6.980;2023-07-30T04:02:54;13.80;99.90
1888;DHT22;944;51.574;6.980;2023-07-30T04:05:21;13.80;99.90
1888;DHT22;944;51.574;6.980;2023-07-30T04:07:48;13.80;99.90
1888;DHT22;944;51.574;6.980;2023-07-30T04:10:15;13.80;99.90
1888;DHT22;944;51.574;6.980;2023-07-30T04:12:44;13.80;99.90
1888;DHT22;944;51.574;6.980;2023-07-30T04:15:12;13.80;99.90
1888;DHT22;944;51.574;6.980;2023-07-30T04:17:39;13.80;99.90
1888;DHT22;944;51.574;6.980;2023-07-30T04:20:07;14.00;99.90
1888;DHT22;944;51.574;6.980;2023-07-30T04:22:34;14.10;99.90
1888;DHT22;944;51.574;6.980;2023-07-30T04:25:02;14.30;99.90
1888;DHT22;944;51.574;6.980;2023-07-30T04:27:30;14.20;99.90
1888;DHT22;944;51.574;6.980;2023-07-30T04:30:01;14.30;99.90
1888;DHT22;944;51.574;6.980;2023-07-30T04:32:38;14.30;99.90
1888;DHT22;944;51.574;6.980;2023-07-30T04:35:06;14.40;99.90
1888;DHT22;944;51.574;6.980;2023-07-30T04:37:34;14.40;99.90
1888;DHT22;944;51.574;6.980;2023-07-30T04:40:01;14.50;99.90
1888;DHT22;944;51.574;6.980;2023-07-30T04:42:28;14.60;99.90
1888;DHT22;944;51.574;6.980;2023-07-30T04:44:55;14.60;99.90
1888;DHT22;944;51.574;6.980;2023-07-30T04:47:24;14.60;99.90
1888;DHT22;944;51.574;6.980;2023-07-30T04:49:51;14.80;99.90
1888;DHT22;944;51.574;6.980;2023-07-30T04:52:18;14.70;99.90
1888;DHT22;944;51.574;6.980;2023-07-30T04:54:45;14.80;99.90
1888;DHT22;944;51.574;6.980;2023-07-30T04:57:12;14.80;99.90
1888;DHT22;944;51.574;6.980;2023-07-30T04:59:40;14.90;99.90
1888;DHT22;944;51.574;6.980;2023-07-30T05:02:10;14.90;99.90
1888;DHT22;944;51.574;6.980;2023-07-30T05:04:42;15.00;99.90
1888;DHT22;944;51.574;6.980;2023-07-30T05:07:10;14.90;99.90
1888;DHT22;944;51.574;6.980;2023-07-30T05:09:37;15.00;99.90
1888;DHT22;944;51.574;6.980;2023-07-30T05:12:06;15.00;99.90
1888;DHT22;944;51.574;6.980;2023-07-30T05:14:34;15.10;99.90
1888;DHT22;944;51.574;6.980;2023-07-30T05:17:01;15.30;99.90
1888;DHT22;944;51.574;6.980;2023-07-30T05:19:28;15.00;99.90
1888;DHT22;944;51.574;6.980;2023-07-30T05:21:57;15.30;99.90
1888;DHT22;944;51.574;6.980;2023-07-30T05:24:27;15.30;99.90
1888;DHT22;944;51.574;6.980;2023-07-30T05:26:54;15.30;99.90
1888;DHT22;944;51.574;6.980;2023-07-30T05:29:23;15.30;99.90
1888;DHT22;944;51.574;6.980;2023-07-30T05:31:51;15.30;99.90
1888;DHT22;944;51.574;6.980;2023-07-30T05:34:18;15.40;99.90
1888;DHT22;944;51.574;6.980;2023-07-30T05:36:51;15.40;99.90
1888;DHT22;944;51.574;6.980;2023-07-30T05:42:49;15.50;99.90
1888;DHT22;944;51.574;6.980;2023-07-30T05:45:16;15.50;99.90
1888;DHT22;944;51.574;6.980;2023-07-30T05:47:47;15.50;99.90
1888;DHT22;944;51.574;6.980;2023-07-30T05:50:15;15.60;99.90
1888;DHT22;944;51.574;6.980;2023-07-30T05:52:43;15.50;99.90
1888;DHT22;944;51.574;6.980;2023-07-30T05:55:11;15.50;99.90
1888;DHT22;944;51.574;6.980;2023-07-30T05:57:41;15.50;99.90
1888;DHT22;944;51.574;6.980;2023-07-30T06:00:09;15.50;99.90
1888;DHT22;944;51.574;6.980;2023-07-30T06:02:36;15.40;99.90
1888;DHT22;944;51.574;6.980;2023-07-30T06:05:04;15.40;99.90
1888;DHT22;944;51.574;6.980;2023-07-30T06:07:31;15.40;99.90
1888;DHT22;944;51.574;6.980;2023-07-30T06:09:58;15.40;99.90
1888;DHT22;944;51.574;6.980;2023-07-30T06:12:30;15.30;99.90
1888;DHT22;944;51.574;6.980;2023-07-30T06:14:58;15.10;99.90
1888;DHT22;944;51.574;6.980;2023-07-30T06:17:27;15.30;99.90
1888;DHT22;944;51.574;6.980;2023-07-30T06:19:54;15.30;99.90
1888;DHT22;944;51.574;6.980;2023-07-30T06:22:29;15.40;99.90
1888;DHT22;944;51.574;6.980;2023-07-30T06:25:14;15.50;99.90
1888;DHT22;944;51.574;6.980;2023-07-30T06:27:46;15.50;99.90
1888;DHT22;944;51.574;6.980;2023-07-30T06:30:17;15.70;99.90
1888;DHT22;944;51.574;6.980;2023-07-30T06:32:44;15.60;99.90
1888;DHT22;944;51.574;6.980;2023-07-30T06:35:25;15.60;99.90
1888;DHT22;944;51.574;6.980;2023-07-30T06:37:52;15.70;99.90
1888;DHT22;944;51.574;6.980;2023-07-30T06:40:19;15.80;99.90
1888;DHT22;944;51.574;6.980;2023-07-30T06:42:49;15.90;99.90
1888;DHT22;944;51.574;6.980;2023-07-30T06:45:16;15.90;99.90
1888;DHT22;944;51.574;6.980;2023-07-30T06:47:43;16.00;99.90
1888;DHT22;944;51.574;6.980;2023-07-30T06:50:10;16.00;99.90
1888;DHT22;944;51.574;6.980;2023-07-30T06:52:37;16.10;99.90
1888;DHT22;944;51.574;6.980;2023-07-30T06:55:05;16.30;99.90
1888;DHT22;944;51.574;6.980;2023-07-30T06:57:40;16.10;99.90
1888;DHT22;944;51.574;6.980;2023-07-30T07:00:10;16.20;99.90
1888;DHT22;944;51.574;6.980;2023-07-30T07:02:37;16.20;99.90
1888;DHT22;944;51.574;6.980;2023-07-30T07:05:05;16.10;99.90
1888;DHT22;944;51.574;6.980;2023-07-30T07:07:32;16.10;99.90
1888;DHT22;944;51.574;6.980;2023-07-30T07:09:59;16.00;99.90
1888;DHT22;944;51.574;6.980;2023-07-30T07:12:26;16.00;99.90
1888;DHT22;944;51.574;6.980;2023-07-30T07:14:53;16.00;99.90
1888;DHT22;944;51.574;6.980;2023-07-30T07:17:24;16.00;99.90
1888;DHT22;944;51.574;6.980;2023-07-30T07:19:51;16.00;99.90
1888;DHT22;944;51.574;6.980;2023-07-30T07:22:18;16.00;99.90
1888;DHT22;944;51.574;6.980;2023-07-30T07:24:46;16.00;99.90
1888;DHT22;944;51.574;6.980;2023-07-30T07:27:13;16.00;99.90
1888;DHT22;944;51.574;6.980;2023-07-30T07:29:40;16.10;99.90
1888;DHT22;944;51.574;6.980;2023-07-30T07:32:07;16.20;99.90
1888;DHT22;944;51.574;6.980;2023-07-30T07:34:35;16.00;99.90
1888;DHT22;944;51.574;6.980;2023-07-30T07:37:03;16.10;99.90
1888;DHT22;944;51.574;6.980;2023-07-30T07:39:32;16.10;99.90
1888;DHT22;944;51.574;6.980;2023-07-30T07:41:59;16.10;99.90
1888;DHT22;944;51.574;6.980;2023-07-30T07:44:26;16.00;99.90
1888;DHT22;944;51.574;6.980;2023-07-30T07:46:53;16.20;99.90
1888;DHT22;944;51.574;6.980;2023-07-30T07:49:20;16.30;99.90
1888;DHT22;944;51.574;6.980;2023-07-30T07:51:50;16.30;99.90
1888;DHT22;944;51.574;6.980;2023-07-30T07:54:17;16.40;99.90
1888;DHT22;944;51.574;6.980;2023-07-30T07:56:44;16.40;99.90
1888;DHT22;944;51.574;6.980;2023-07-30T07:59:11;16.40;99.90
1888;DHT22;944;51.574;6.980;2023-07-30T08:01:38;16.40;99.90
1888;DHT22;944;51.574;6.980;2023-07-30T08:04:05;16.40;99.90
1888;DHT22;944;51.574;6.980;2023-07-30T08:06:32;16.50;99.90
1888;DHT22;944;51.574;6.980;2023-07-30T08:09:00;16.60;99.90
1888;DHT22;944;51.574;6.980;2023-07-30T08:11:28;16.80;99.90
1888;DHT22;944;51.574;6.980;2023-07-30T08:13:55;16.90;99.90
1888;DHT22;944;51.574;6.980;2023-07-30T08:16:22;17.00;99.90
1888;DHT22;944;51.574;6.980;2023-07-30T08:18:50;17.00;99.90
1888;DHT22;944;51.574;6.980;2023-07-30T08:21:17;17.00;99.90
1888;DHT22;944;51.574;6.980;2023-07-30T08:23:46;17.10;99.90
1888;DHT22;944;51.574;6.980;2023-07-30T08:26:14;17.30;99.90
1888;DHT22;944;51.574;6.980;2023-07-30T08:28:41;17.50;99.90
1888;DHT22;944;51.574;6.980;2023-07-30T08:31:08;17.50;99.90
1888;DHT22;944;51.574;6.980;2023-07-30T08:33:35;17.60;99.90
1888;DHT22;944;51.574;6.980;2023-07-30T08:36:02;17.90;99.90
1888;DHT22;944;51.574;6.980;2023-07-30T08:38:29;17.60;99.90
1888;DHT22;944;51.574;6.980;2023-07-30T08:40:56;17.60;99.90
1888;DHT22;944;51.574;6.980;2023-07-30T08:43:25;17.60;99.90
1888;DHT22;944;51.574;6.980;2023-07-30T08:45:52;17.60;99.90
1888;DHT22;944;51.574;6.980;2023-07-30T08:48:19;17.60;99.90
1888;DHT22;944;51.574;6.980;2023-07-30T08:50:48;17.60;99.90
1888;DHT22;944;51.574;6.980;2023-07-30T08:53:16;17.60;99.90
1888;DHT22;944;51.574;6.980;2023-07-30T08:55:44;17.80;99.90
1888;DHT22;944;51.574;6.980;2023-07-30T08:58:12;17.90;99.90
1888;DHT22;944;51.574;6.980;2023-07-30T09:00:42;18.00;99.90
1888;DHT22;944;51.574;6.980;2023-07-30T09:03:09;17.90;99.90
1888;DHT22;944;51.574;6.980;2023-07-30T09:05:52;17.80;99.90
1888;DHT22;944;51.574;6.980;2023-07-30T09:08:24;17.70;99.90
1888;DHT22;944;51.574;6.980;2023-07-30T09:10:51;17.80;99.90
1888;DHT22;944;51.574;6.980;2023-07-30T09:13:21;18.30;99.90
1888;DHT22;944;51.574;6.980;2023-07-30T09:19:29;18.50;99.90
1888;DHT22;944;51.574;6.980;2023-07-30T09:26:44;19.00;99.90
1888;DHT22;944;51.574;6.980;2023-07-30T09:29:56;19.40;99.90
1888;DHT22;944;51.574;6.980;2023-07-30T09:32:41;19.60;99.90
1888;DHT22;944;51.574;6.980;2023-07-30T09:38:24;20.30;99.90
1888;DHT22;944;51.574;6.980;2023-07-30T09:40:51;20.30;99.90
1888;DHT22;944;51.574;6.980;2023-07-30T09:43:19;20.10;99.90
1888;DHT22;944;51.574;6.980;2023-07-30T09:45:51;20.00;99.90
1888;DHT22;944;51.574;6.980;2023-07-30T10:06:02;20.00;99.90
1888;DHT22;944;51.574;6.980;2023-07-30T10:08:41;20.20;99.90
1888;DHT22;944;51.574;6.980;2023-07-30T10:11:15;20.20;99.90
1888;DHT22;944;51.574;6.980;2023-07-30T10:13:54;20.40;99.90
1888;DHT22;944;51.574;6.980;2023-07-30T10:16:25;20.30;99.90
1888;DHT22;944;51.574;6.980;2023-07-30T10:18:59;20.30;99.90
1888;DHT22;944;51.574;6.980;2023-07-30T10:21:31;20.20;99.90
1888;DHT22;944;51.574;6.980;2023-07-30T10:24:03;20.10;99.90
1888;DHT22;944;51.574;6.980;2023-07-30T10:26:33;19.80;99.90
1888;DHT22;944;51.574;6.980;2023-07-30T10:29:22;19.50;99.90
1888;DHT22;944;51.574;6.980;2023-07-30T10:31:57;19.40;99.90
1888;DHT22;944;51.574;6.980;2023-07-30T10:34:26;19.30;99.90
1888;DHT22;944;51.574;6.980;2023-07-30T10:36:59;19.30;99.90
1888;DHT22;944;51.574;6.980;2023-07-30T10:39:34;19.40;99.90
1888;DHT22;944;51.574;6.980;2023-07-30T10:42:13;19.50;99.90
1888;DHT22;944;51.574;6.980;2023-07-30T10:47:34;19.30;99.90
1888;DHT22;944;51.574;6.980;2023-07-30T10:50:03;19.50;99.90
1888;DHT22;944;51.574;6.980;2023-07-30T10:52:40;19.60;99.90
1888;DHT22;944;51.574;6.980;2023-07-30T10:55:07;19.80;99.90
1888;DHT22;944;51.574;6.980;2023-07-30T10:57:36;20.10;99.90
1888;DHT22;944;51.574;6.980;2023-07-30T11:00:06;20.30;99.90
1888;DHT22;944;51.574;6.980;2023-07-30T11:02:39;20.50;99.90
1888;DHT22;944;51.574;6.980;2023-07-30T11:05:14;20.50;99.90
1888;DHT22;944;51.574;6.980;2023-07-30T11:07:49;20.50;99.90
1888;DHT22;944;51.574;6.980;2023-07-30T11:10:17;20.60;99.90
1888;DHT22;944;51.574;6.980;2023-07-30T11:12:48;20.70;99.90
1888;DHT22;944;51.574;6.980;2023-07-30T11:15:16;21.00;99.90
1888;DHT22;944;51.574;6.980;2023-07-30T11:17:45;21.20;99.90
1888;DHT22;944;51.574;6.980;2023-07-30T11:20:22;20.90;99.90
1888;DHT22;944;51.574;6.980;2023-07-30T11:23:00;20.90;99.90
1888;DHT22;944;51.574;6.980;2023-07-30T11:25:27;20.60;99.90
1888;DHT22;944;51.574;6.980;2023-07-30T11:27:55;20.70;99.90
1888;DHT22;944;51.574;6.980;2023-07-30T11:30:22;20.70;99.90
1888;DHT22;944;51.574;6.980;2023-07-30T11:32:51;20.80;99.90
1888;DHT22;944;51.574;6.980;2023-07-30T11:35:18;20.90;99.90
1888;DHT22;944;51.574;6.980;2023-07-30T11:38:07;20.90;99.90
1888;DHT22;944;51.574;6.980;2023-07-30T11:41:08;20.90;99.90
1888;DHT22;944;51.574;6.980;2023-07-30T11:43:42;20.80;99.90
1888;DHT22;944;51.574;6.980;2023-07-30T11:46:24;20.70;99.90
1888;DHT22;944;51.574;6.980;2023-07-30T11:49:17;20.50;99.90
1888;DHT22;944;51.574;6.980;2023-07-30T11:51:56;20.90;99.90
1888;DHT22;944;51.574;6.980;2023-07-30T11:54:38;20.90;99.90
1888;DHT22;944;51.574;6.980;2023-07-30T11:57:09;21.20;99.90
1888;DHT22;944;51.574;6.980;2023-07-30T12:00:05;21.30;99.90
1888;DHT22;944;51.574;6.980;2023-07-30T12:06:52;22.30;99.90
1888;DHT22;944;51.574;6.980;2023-07-30T12:09:23;22.50;99.90
1888;DHT22;944;51.574;6.980;2023-07-30T12:11:54;22.30;99.90
1888;DHT22;944;51.574;6.980;2023-07-30T12:14:24;22.10;99.90
1888;DHT22;944;51.574;6.980;2023-07-30T12:17:07;22.10;99.90
1888;DHT22;944;51.574;6.980;2023-07-30T12:19:38;22.20;99.90
1888;DHT22;944;51.574;6.980;2023-07-30T12:22:13;21.90;99.90
1888;DHT22;944;51.574;6.980;2023-07-30T12:24:45;21.60;99.90
1888;DHT22;944;51.574;6.980;2023-07-30T12:27:17;21.60;99.90
1888;DHT22;944;51.574;6.980;2023-07-30T12:29:49;21.70;99.90
1888;DHT22;944;51.574;6.980;2023-07-30T12:32:28;21.70;99.90
1888;DHT22;944;51.574;6.980;2023-07-30T12:38:23;21.40;99.90
1888;DHT22;944;51.574;6.980;2023-07-30T12:40:51;20.90;99.90
1888;DHT22;944;51.574;6.980;2023-07-30T12:43:18;20.60;99.90
1888;DHT22;944;51.574;6.980;2023-07-30T12:45:46;20.30;99.90
1888;DHT22;944;51.574;6.980;2023-07-30T12:48:15;20.10;99.90
1888;DHT22;944;51.574;6.980;2023-07-30T12:50:43;19.80;99.90
1888;DHT22;944;51.574;6.980;2023-07-30T12:53:18;19.70;99.90
1888;DHT22;944;51.574;6.980;2023-07-30T12:55:53;19.60;99.90
1888;DHT22;944;51.574;6.980;2023-07-30T12:58:23;19.50;99.90
1888;DHT22;944;51.574;6.980;2023-07-30T13:00:57;19.40;99.90
1888;DHT22;944;51.574;6.980;2023-07-30T13:03:33;19.20;99.90
1888;DHT22;944;51.574;6.980;2023-07-30T13:06:02;19.10;99.90
1888;DHT22;944;51.574;6.980;2023-07-30T13:08:32;18.80;99.90
1888;DHT22;944;51.574;6.980;2023-07-30T13:11:02;18.60;99.90
1888;DHT22;944;51.574;6.980;2023-07-30T13:13:32;18.80;99.90
1888;DHT22;944;51.574;6.980;2023-07-30T13:15:59;18.60;99.90
1888;DHT22;944;51.574;6.980;2023-07-30T13:18:27;18.50;99.90
1888;DHT22;944;51.574;6.980;2023-07-30T13:20:56;18.40;99.90
1888;DHT22;944;51.574;6.980;2023-07-30T13:23:40;18.40;99.90
1888;DHT22;944;51.574;6.980;2023-07-30T13:26:07;18.30;99.90
1888;DHT22;944;51.574;6.980;2023-07-30T13:28:39;18.20;99.90
1888;DHT22;944;51.574;6.980;2023-07-30T13:31:07;18.20;99.90
1888;DHT22;944;51.574;6.980;2023-07-30T13:33:34;18.40;99.90
1888;DHT22;944;51.574;6.980;2023-07-30T13:36:06;18.60;99.90
1888;DHT22;944;51.574;6.980;2023-07-30T13:38:37;18.90;99.90
1888;DHT22;944;51.574;6.980;2023-07-30T13:41:11;19.20;99.90
1888;DHT22;944;51.574;6.980;2023-07-30T13:43:40;19.50;99.90
1888;DHT22;944;51.574;6.980;2023-07-30T13:46:10;19.70;99.90
1888;DHT22;944;51.574;6.980;2023-07-30T13:48:38;19.80;99.90
1888;DHT22;944;51.574;6.980;2023-07-30T13:51:07;19.70;99.90
1888;DHT22;944;51.574;6.980;2023-07-30T13:53:34;20.00;99.90
1888;DHT22;944;51.574;6.980;2023-07-30T13:56:04;20.10;99.90
1888;DHT22;944;51.574;6.980;2023-07-30T13:58:31;20.30;99.90
1888;DHT22;944;51.574;6.980;2023-07-30T14:00:58;20.30;99.90
1888;DHT22;944;51.574;6.980;2023-07-30T14:03:27;20.30;99.90
1888;DHT22;944;51.574;6.980;2023-07-30T14:05:54;20.20;99.90
1888;DHT22;944;51.574;6.980;2023-07-30T14:08:22;20.50;99.90
1888;DHT22;944;51.574;6.980;2023-07-30T14:10:51;20.40;99.90
1888;DHT22;944;51.574;6.980;2023-07-30T14:13:18;20.50;99.90
1888;DHT22;944;51.574;6.980;2023-07-30T14:15:45;20.70;99.90
1888;DHT22;944;51.574;6.980;2023-07-30T14:18:12;20.80;99.90
1888;DHT22;944;51.574;6.980;2023-07-30T14:20:41;20.90;99.90
1888;DHT22;944;51.574;6.980;2023-07-30T14:23:09;21.00;99.90
1888;DHT22;944;51.574;6.980;2023-07-30T14:25:38;20.90;99.90
1888;DHT22;944;51.574;6.980;2023-07-30T14:28:05;20.80;99.90
1888;DHT22;944;51.574;6.980;2023-07-30T14:30:33;20.60;99.90
1888;DHT22;944;51.574;6.980;2023-07-30T14:33:03;20.70;99.90
1888;DHT22;944;51.574;6.980;2023-07-30T14:35:32;20.30;99.90
1888;DHT22;944;51.574;6.980;2023-07-30T14:38:01;20.10;99.90
1888;DHT22;944;51.574;6.980;2023-07-30T14:40:33;20.20;99.90
1888;DHT22;944;51.574;6.980;2023-07-30T14:43:01;20.30;99.90
1888;DHT22;944;51.574;6.980;2023-07-30T14:46:17;20.40;99.90
1888;DHT22;944;51.574;6.980;2023-07-30T14:48:39;20.50;99.90
1888;DHT22;944;51.574;6.980;2023-07-30T14:51:06;20.50;99.90
1888;DHT22;944;51.574;6.980;2023-07-30T14:53:34;20.50;99.90
1888;DHT22;944;51.574;6.980;2023-07-30T14:56:02;20.60;99.90
1888;DHT22;944;51.574;6.980;2023-07-30T14:58:39;20.70;99.90
1888;DHT22;944;51.574;6.980;2023-07-30T15:01:09;20.80;99.90
1888;DHT22;944;51.574;6.980;2023-07-30T15:03:46;20.90;99.90
1888;DHT22;944;51.574;6.980;2023-07-30T15:06:16;21.00;99.90
1888;DHT22;944;51.574;6.980;2023-07-30T15:08:49;20.80;99.90
1888;DHT22;944;51.574;6.980;2023-07-30T15:11:21;20.70;99.90
1888;DHT22;944;51.574;6.980;2023-07-30T15:13:49;20.80;99.90
1888;DHT22;944;51.574;6.980;2023-07-30T15:16:16;20.70;99.90
1888;DHT22;944;51.574;6.980;2023-07-30T15:18:46;20.80;99.90
1888;DHT22;944;51.574;6.980;2023-07-30T15:21:13;20.70;99.90
1888;DHT22;944;51.574;6.980;2023-07-30T15:23:47;20.80;99.90
1888;DHT22;944;51.574;6.980;2023-07-30T15:26:15;20.90;99.90
1888;DHT22;944;51.574;6.980;2023-07-30T15:28:52;20.80;99.90
1888;DHT22;944;51.574;6.980;2023-07-30T15:31:19;20.90;99.90
1888;DHT22;944;51.574;6.980;2023-07-30T15:33:53;20.90;99.90
1888;DHT22;944;51.574;6.980;2023-07-30T15:40:08;21.00;99.90
1888;DHT22;944;51.574;6.980;2023-07-30T15:42:39;21.00;99.90
1888;DHT22;944;51.574;6.980;2023-07-30T15:48:42;21.00;99.90
1888;DHT22;944;51.574;6.980;2023-07-30T15:51:34;20.80;99.90
1888;DHT22;944;51.574;6.980;2023-07-30T15:54:10;20.90;99.90
1888;DHT22;944;51.574;6.980;2023-07-30T15:56:57;20.90;99.90
1888;DHT22;944;51.574;6.980;2023-07-30T15:59:54;21.10;99.90
1888;DHT22;944;51.574;6.980;2023-07-30T16:02:50;21.20;99.90
1888;DHT22;944;51.574;6.980;2023-07-30T16:05:38;21.20;99.90
1888;DHT22;944;51.574;6.980;2023-07-30T16:08:08;21.20;99.90
1888;DHT22;944;51.574;6.980;2023-07-30T16:11:36;21.20;99.90
1888;DHT22;944;51.574;6.980;2023-07-30T16:17:47;21.20;99.90
1888;DHT22;944;51.574;6.980;2023-07-30T16:20:33;21.30;99.90
1888;DHT22;944;51.574;6.980;2023-07-30T16:23:32;21.30;99.90
1888;DHT22;944;51.574;6.980;2023-07-30T16:26:04;21.40;99.90
1888;DHT22;944;51.574;6.980;2023-07-30T16:28:46;21.50;99.90
1888;DHT22;944;51.574;6.980;2023-07-30T16:31:17;21.40;99.90
1888;DHT22;944;51.574;6.980;2023-07-30T16:37:02;21.30;99.90
1888;DHT22;944;51.574;6.980;2023-07-30T16:39:30;21.40;99.90
1888;DHT22;944;51.574;6.980;2023-07-30T16:42:00;21.40;99.90
1888;DHT22;944;51.574;6.980;2023-07-30T16:44:29;21.50;99.90
1888;DHT22;944;51.574;6.980;2023-07-30T16:46:59;21.50;99.90
1888;DHT22;944;51.574;6.980;2023-07-30T16:49:31;21.50;99.90
1888;DHT22;944;51.574;6.980;2023-07-30T16:52:05;21.60;99.90
1888;DHT22;944;51.574;6.980;2023-07-30T16:54:36;21.60;99.90
1888;DHT22;944;51.574;6.980;2023-07-30T16:57:05;21.70;99.90
1888;DHT22;944;51.574;6.980;2023-07-30T16:59:34;21.80;99.90
1888;DHT22;944;51.574;6.980;2023-07-30T17:02:03;21.70;99.90
1888;DHT22;944;51.574;6.980;2023-07-30T17:04:30;21.70;99.90
1888;DHT22;944;51.574;6.980;2023-07-30T17:07:01;21.70;99.90
1888;DHT22;944;51.574;6.980;2023-07-30T17:09:28;21.60;99.90
1888;DHT22;944;51.574;6.980;2023-07-30T17:11:57;21.40;99.90
1888;DHT22;944;51.574;6.980;2023-07-30T17:14:24;21.30;99.90
1888;DHT22;944;51.574;6.980;2023-07-30T17:16:55;21.30;99.90
1888;DHT22;944;51.574;6.980;2023-07-30T17:19:27;21.40;99.90
1888;DHT22;944;51.574;6.980;2023-07-30T17:22:01;21.50;99.90
1888;DHT22;944;51.574;6.980;2023-07-30T17:24:35;21.60;99.90
1888;DHT22;944;51.574;6.980;2023-07-30T17:27:08;21.60;99.90
1888;DHT22;944;51.574;6.980;2023-07-30T17:29:39;21.50;99.90
1888;DHT22;944;51.574;6.980;2023-07-30T17:32:21;21.50;99.90
1888;DHT22;944;51.574;6.980;2023-07-30T17:34:48;21.40;99.90